Time;durP1;ratioP1;P1;durP2;ratioP2;P2;SDS_P1;SDS_P2;PMS_P1;PMS_P2;Temp;Humidity;BMP_temperature;BMP_pressure;BME280_temperature;BME280_humidity;BME280_pressure;Samples;Min_cycle;Max_cycle;Signal;HPM_P1;HPM_P2
2022/06/25 04:01:55;;;;;;;30.83;17.75;;;14.30;99.90;;;;;;5320738;23;20043;-76
2022/06/25 04:04:21;;;;;;;30.83;16.73;;;14.30;99.90;;;;;;4995092;28;20043;-76
2022/06/25 04:06:46;;;;;;;26.17;17.00;;;14.30;99.90;;;;;;4996474;28;20035;-76
2022/06/25 04:09:12;;;;;;;22.63;15.65;;;14.30;99.90;;;;;;4996770;28;20039;-77
2022/06/25 04:11:38;;;;;;;25.45;15.55;;;14.30;99.90;;;;;;4994969;28;20122;-76
2022/06/25 04:14:04;;;;;;;22.08;15.23;;;14.30;99.90;;;;;;4995331;28;20396;-78
2022/06/25 04:16:29;;;;;;;27.42;15.88;;;14.30;99.90;;;;;;4997321;28;20082;-77
2022/06/25 04:18:55;;;;;;;31.85;18.65;;;14.30;99.90;;;;;;4994919;28;20527;-76
2022/06/25 04:21:21;;;;;;;27.80;17.42;;;14.30;99.90;;;;;;4994761;28;20404;-76
2022/06/25 04:23:46;;;;;;;22.40;15.48;;;14.30;99.90;;;;;;4996502;28;20031;-76
2022/06/25 04:26:12;;;;;;;27.30;15.75;;;14.40;99.90;;;;;;4996181;28;20050;-76
2022/06/25 04:31:22;;;;;;;25.50;15.73;;;14.40;99.90;;;;;;4996249;28;20137;-76
2022/06/25 04:33:47;;;;;;;29.55;17.73;;;14.50;99.90;;;;;;4996164;28;20147;-76
2022/06/25 04:36:13;;;;;;;27.52;16.55;;;14.50;99.90;;;;;;4996008;28;20035;-76
2022/06/25 04:38:38;;;;;;;20.17;13.70;;;14.50;99.90;;;;;;4994730;28;20038;-76
2022/06/25 04:41:04;;;;;;;24.63;15.57;;;14.40;99.90;;;;;;4995893;28;20054;-76
2022/06/25 04:43:29;;;;;;;28.35;17.05;;;14.60;99.90;;;;;;4996957;28;20106;-77
2022/06/25 04:45:55;;;;;;;37.50;17.70;;;14.50;99.90;;;;;;4998096;28;20070;-77
2022/06/25 04:48:20;;;;;;;29.95;17.35;;;14.60;99.90;;;;;;4997890;28;20066;-77
2022/06/25 04:50:47;;;;;;;25.42;16.17;;;14.70;99.90;;;;;;4997961;28;20038;-77
2022/06/25 04:53:13;;;;;;;24.83;15.95;;;14.80;99.90;;;;;;4998344;28;20035;-77
2022/06/25 04:55:38;;;;;;;35.13;20.35;;;14.90;99.90;;;;;;4998369;28;20038;-77
2022/06/25 04:58:04;;;;;;;25.65;17.15;;;14.90;99.90;;;;;;4997937;28;20082;-77
2022/06/25 05:00:29;;;;;;;28.00;18.13;;;15.00;99.90;;;;;;4997341;28;20070;-77
2022/06/25 05:02:55;;;;;;;18.23;13.98;;;15.10;99.90;;;;;;4996347;28;20362;-78
2022/06/25 05:05:21;;;;;;;24.88;15.93;;;15.20;99.90;;;;;;4997404;28;20158;-78
2022/06/25 05:07:46;;;;;;;34.50;18.38;;;15.20;99.90;;;;;;4997657;28;20035;-78
2022/06/25 05:10:12;;;;;;;15.13;10.57;;;15.30;99.90;;;;;;4997787;28;20499;-78
2022/06/25 05:15:21;;;;;;;25.35;15.18;;;15.30;99.90;;;;;;4997033;28;20512;-78
2022/06/25 05:17:47;;;;;;;14.40;10.52;;;15.30;99.90;;;;;;4995748;28;20129;-78
2022/06/25 05:20:13;;;;;;;25.27;13.05;;;15.30;99.90;;;;;;4997876;28;20512;-78
2022/06/25 05:22:39;;;;;;;29.55;15.27;;;15.40;99.90;;;;;;4997717;28;20070;-78
2022/06/25 05:25:05;;;;;;;20.92;13.05;;;15.50;99.90;;;;;;4996679;28;20038;-78
2022/06/25 05:27:30;;;;;;;22.80;13.18;;;15.50;99.90;;;;;;4997444;28;20042;-78
2022/06/25 05:29:56;;;;;;;13.77;7.97;;;15.60;99.90;;;;;;4995835;28;20030;-78
2022/06/25 05:32:21;;;;;;;12.77;10.60;;;15.70;99.90;;;;;;4997492;28;20034;-78
2022/06/25 05:34:48;;;;;;;16.58;11.00;;;15.70;99.90;;;;;;4997812;28;20115;-78
2022/06/25 05:37:14;;;;;;;13.48;10.10;;;15.90;99.90;;;;;;4998365;28;20035;-77
2022/06/25 05:39:40;;;;;;;13.57;9.38;;;15.90;99.90;;;;;;4998358;28;20034;-78
2022/06/25 05:42:05;;;;;;;8.95;6.93;;;15.90;99.90;;;;;;4998059;28;20041;-78
2022/06/25 05:44:31;;;;;;;8.50;6.78;;;16.00;99.90;;;;;;4997498;28;20519;-78
2022/06/25 05:46:57;;;;;;;12.98;9.30;;;16.00;99.90;;;;;;4996449;28;20401;-78
2022/06/25 05:49:22;;;;;;;10.52;8.00;;;16.10;99.90;;;;;;4998329;28;20162;-79
2022/06/25 05:51:48;;;;;;;12.68;9.00;;;16.10;99.90;;;;;;4994719;28;20035;-79
2022/06/25 05:54:14;;;;;;;14.65;9.38;;;16.20;99.90;;;;;;4995344;28;20071;-79
2022/06/25 05:56:39;;;;;;;5.85;3.80;;;16.40;99.90;;;;;;4996840;28;20114;-79
2022/06/25 05:59:05;;;;;;;8.15;7.25;;;16.30;99.90;;;;;;5004329;28;20046;-78
2022/06/25 06:01:30;;;;;;;6.45;5.57;;;16.40;99.90;;;;;;5000392;28;20130;-79
2022/06/25 06:03:56;;;;;;;8.93;6.65;;;16.40;99.90;;;;;;4996752;28;20547;-79
2022/06/25 06:06:21;;;;;;;9.02;5.68;;;16.50;99.90;;;;;;4996450;28;20496;-79
2022/06/25 06:08:47;;;;;;;6.88;5.47;;;16.50;99.90;;;;;;4995616;28;20051;-79
2022/06/25 06:11:13;;;;;;;11.40;7.40;;;16.60;99.90;;;;;;4997711;28;20114;-79
2022/06/25 06:13:38;;;;;;;11.00;7.15;;;16.70;99.90;;;;;;4996848;28;20451;-79
2022/06/25 06:16:04;;;;;;;7.45;5.78;;;16.70;99.90;;;;;;4995467;28;20030;-79
2022/06/25 06:18:30;;;;;;;8.25;6.30;;;16.90;99.90;;;;;;4996174;28;20035;-76
2022/06/25 06:20:55;;;;;;;10.15;6.05;;;16.90;99.90;;;;;;4996399;28;20127;-78
2022/06/25 06:23:21;;;;;;;5.20;4.43;;;16.90;99.90;;;;;;4994262;28;20046;-78
2022/06/25 06:25:46;;;;;;;3.97;3.58;;;16.90;99.90;;;;;;4996273;28;20122;-78
2022/06/25 06:28:12;;;;;;;4.03;3.65;;;17.00;99.90;;;;;;4999101;28;20065;-78
2022/06/25 06:30:37;;;;;;;7.35;6.07;;;16.90;99.90;;;;;;4999480;28;20439;-78
2022/06/25 06:33:03;;;;;;;5.85;4.00;;;16.90;99.90;;;;;;4998533;28;20041;-79
2022/06/25 06:35:29;;;;;;;5.72;4.47;;;16.90;99.90;;;;;;4998445;28;20058;-78
2022/06/25 06:37:54;;;;;;;8.00;6.13;;;16.90;99.90;;;;;;4999594;28;20090;-78
2022/06/25 06:40:20;;;;;;;7.80;5.85;;;17.00;99.90;;;;;;4998139;28;20058;-78
2022/06/25 06:42:45;;;;;;;4.13;3.55;;;17.10;99.90;;;;;;4997920;28;20043;-78
2022/06/25 06:45:11;;;;;;;3.72;3.38;;;17.00;99.90;;;;;;4999704;28;20035;-78
2022/06/25 06:47:37;;;;;;;7.38;5.78;;;17.20;99.90;;;;;;4999261;28;20428;-78
2022/06/25 06:50:03;;;;;;;9.65;4.70;;;17.30;99.90;;;;;;4998224;28;20027;-79
2022/06/25 06:52:28;;;;;;;3.15;2.85;;;17.40;99.90;;;;;;4998823;28;20181;-79
2022/06/25 06:54:54;;;;;;;5.55;4.50;;;17.10;99.90;;;;;;4998999;28;20165;-79
2022/06/25 06:57:19;;;;;;;3.72;3.42;;;17.00;99.90;;;;;;4997547;28;20105;-79
2022/06/25 06:59:45;;;;;;;3.92;3.58;;;17.20;99.90;;;;;;4999180;28;20039;-78
2022/06/25 07:02:10;;;;;;;3.65;3.33;;;17.40;99.90;;;;;;4999245;28;20039;-79
2022/06/25 07:04:36;;;;;;;4.03;3.70;;;17.50;99.90;;;;;;4999414;28;20030;-79
2022/06/25 07:07:02;;;;;;;3.45;2.55;;;17.80;99.90;;;;;;4999810;28;20452;-77
2022/06/25 07:09:27;;;;;;;4.13;3.03;;;18.00;99.90;;;;;;5000222;28;20035;-79
2022/06/25 07:11:53;;;;;;;3.83;2.58;;;18.10;99.90;;;;;;4998559;28;20046;-80
2022/06/25 07:14:18;;;;;;;4.78;3.78;;;18.10;99.90;;;;;;5001315;28;19922;-79
2022/06/25 07:16:44;;;;;;;3.35;2.33;;;18.20;99.90;;;;;;5001212;28;20035;-77
2022/06/25 07:19:12;;;;;;;3.50;3.00;;;18.30;99.90;;;;;;4998916;28;20035;-80
2022/06/25 07:21:38;;;;;;;5.72;3.17;;;18.20;99.90;;;;;;4998739;28;20035;-77
2022/06/25 07:24:04;;;;;;;3.72;3.05;;;18.30;99.90;;;;;;5000077;28;20034;-77
2022/06/25 07:26:30;;;;;;;3.22;1.98;;;18.40;99.90;;;;;;4999464;28;20034;-78
2022/06/25 07:28:55;;;;;;;2.72;2.20;;;18.40;99.90;;;;;;4997483;28;20469;-77
2022/06/25 07:31:21;;;;;;;2.40;2.20;;;18.60;99.90;;;;;;4998511;28;20043;-74
2022/06/25 07:33:47;;;;;;;2.35;2.13;;;18.90;99.90;;;;;;4999528;28;20520;-75
2022/06/25 07:36:13;;;;;;;3.67;2.70;;;19.10;99.90;;;;;;5017026;28;20064;-75
2022/06/25 07:38:39;;;;;;;2.70;2.10;;;19.30;99.90;;;;;;5011723;28;20062;-75
2022/06/25 07:41:05;;;;;;;2.90;2.35;;;19.30;99.90;;;;;;5016938;28;20041;-75
2022/06/25 07:43:31;;;;;;;2.78;2.10;;;19.40;99.90;;;;;;5017272;28;20172;-74
2022/06/25 07:45:58;;;;;;;2.20;2.00;;;19.60;99.90;;;;;;5016972;28;20058;-75
2022/06/25 07:48:25;;;;;;;3.72;2.53;;;19.90;99.90;;;;;;5016991;28;20034;-81
2022/06/25 07:53:35;;;;;;;4.22;2.97;;;20.10;99.90;;;;;;5017931;28;20086;-76
2022/06/25 07:56:00;;;;;;;2.67;2.40;;;20.20;99.90;;;;;;5017527;28;20066;-75
2022/06/25 07:58:27;;;;;;;2.78;2.45;;;20.20;99.90;;;;;;5014008;28;20372;-75
2022/06/25 08:00:53;;;;;;;3.55;2.33;;;20.30;99.90;;;;;;5014484;28;20034;-77
2022/06/25 08:03:19;;;;;;;2.60;2.08;;;20.40;99.90;;;;;;5018434;28;20033;-78
2022/06/25 08:05:46;;;;;;;2.10;1.90;;;20.60;99.90;;;;;;5017170;28;20065;-75
2022/06/25 08:08:12;;;;;;;2.00;1.90;;;20.70;99.90;;;;;;5018472;28;20035;-78
2022/06/25 08:10:37;;;;;;;3.22;2.13;;;20.90;99.90;;;;;;5023266;28;20033;-81
2022/06/25 08:13:03;;;;;;;2.00;1.90;;;21.10;99.90;;;;;;5023140;28;20407;-78
2022/06/25 08:15:28;;;;;;;3.30;1.88;;;21.30;99.90;;;;;;5018764;28;20150;-76
2022/06/25 08:17:54;;;;;;;2.65;1.88;;;21.30;99.90;;;;;;5021026;28;20098;-76
2022/06/25 08:20:19;;;;;;;2.65;2.15;;;21.40;99.90;;;;;;5004380;28;20035;-76
2022/06/25 08:22:45;;;;;;;4.40;1.83;;;21.60;99.90;;;;;;4997007;28;20051;-77
2022/06/25 08:25:11;;;;;;;2.78;1.98;;;21.80;99.90;;;;;;4996770;28;20034;-77
2022/06/25 08:27:49;;;;;;;4.18;2.10;;;22.00;99.90;;;;;;4996279;28;20071;-77
2022/06/25 08:30:15;;;;;;;2.00;1.90;;;21.80;99.90;;;;;;4995148;28;20062;-77
2022/06/25 08:32:40;;;;;;;2.00;1.80;;;21.80;99.90;;;;;;4996451;28;20509;-77
2022/06/25 08:35:06;;;;;;;2.92;1.73;;;21.90;99.90;;;;;;4994218;28;20555;-77
2022/06/25 08:37:36;;;;;;;4.65;1.70;;;22.00;99.90;;;;;;4995898;28;20047;-77
2022/06/25 08:40:02;;;;;;;3.28;2.10;;;22.00;99.90;;;;;;4996522;28;20039;-82
2022/06/25 08:42:28;;;;;;;2.35;1.92;;;22.10;99.90;;;;;;4996669;28;20424;-77
2022/06/25 08:44:53;;;;;;;4.70;1.90;;;22.30;99.90;;;;;;4996387;28;20159;-77
2022/06/25 08:47:19;;;;;;;2.22;1.60;;;22.40;99.90;;;;;;4995858;28;20488;-77
2022/06/25 08:49:45;;;;;;;2.80;1.73;;;22.60;99.90;;;;;;4995240;28;20486;-77
2022/06/25 08:52:13;;;;;;;3.47;1.70;;;22.60;99.90;;;;;;4979602;28;20517;-78
2022/06/25 08:54:39;;;;;;;2.22;1.65;;;22.70;99.90;;;;;;4977389;28;20039;-78
2022/06/25 08:57:08;;;;;;;3.50;2.05;;;23.00;99.90;;;;;;4976520;28;20062;-77
2022/06/25 08:59:34;;;;;;;2.20;1.60;;;23.30;99.90;;;;;;4978787;28;20038;-77
2022/06/25 09:02:00;;;;;;;3.17;1.63;;;23.30;99.90;;;;;;4996313;28;20179;-78
2022/06/25 09:04:26;;;;;;;2.58;1.70;;;23.10;99.90;;;;;;4998250;28;20165;-79
2022/06/25 09:07:09;;;;;;;1.90;1.60;;;23.00;99.90;;;;;;4993138;28;20038;-79
2022/06/25 09:09:35;;;;;;;3.60;1.70;;;22.90;99.90;;;;;;4978377;28;20031;-77
2022/06/25 09:12:05;;;;;;;1.60;1.48;;;22.90;99.90;;;;;;4977457;28;20035;-78
2022/06/25 09:14:32;;;;;;;3.00;1.60;;;22.90;99.90;;;;;;4976336;28;20039;-77
2022/06/25 09:17:03;;;;;;;2.75;1.70;;;23.00;99.90;;;;;;4996447;28;20027;-77
2022/06/25 09:19:30;;;;;;;1.63;1.50;;;23.30;99.90;;;;;;4996447;28;20131;-78
2022/06/25 09:21:58;;;;;;;4.32;1.83;;;23.50;99.90;;;;;;4995275;28;20479;-78
2022/06/25 09:24:37;;;;;;;2.78;1.63;;;23.70;99.90;;;;;;4990590;28;20031;-78
2022/06/25 09:27:03;;;;;;;3.88;1.77;;;23.70;99.90;;;;;;4991619;28;20027;-78
2022/06/25 09:29:48;;;;;;;3.17;1.77;;;23.90;99.90;;;;;;4997121;28;20447;-78
2022/06/25 09:32:14;;;;;;;3.55;1.90;;;24.20;99.90;;;;;;4996424;28;20035;-79
2022/06/25 09:34:40;;;;;;;2.67;1.75;;;24.10;99.90;;;;;;4997184;28;20030;-78
2022/06/25 09:37:20;;;;;;;1.65;1.48;;;24.30;99.90;;;;;;4996337;28;20035;-79
2022/06/25 09:39:47;;;;;;;2.85;1.67;;;24.50;99.90;;;;;;4996226;28;20089;-77
2022/06/25 09:42:42;;;;;;;1.88;1.50;;;24.50;99.90;;;;;;4996296;28;20039;-78
2022/06/25 09:45:12;;;;;;;4.85;1.50;;;24.50;99.90;;;;;;4978318;28;20108;-82
2022/06/25 09:47:43;;;;;;;2.72;1.50;;;23.80;99.90;;;;;;4994745;28;20030;-78
2022/06/25 09:50:12;;;;;;;1.67;1.38;;;23.30;99.90;;;;;;4994073;28;20062;-78
2022/06/25 09:52:54;;;;;;;1.75;1.23;;;23.50;99.90;;;;;;4995323;28;20039;-78
2022/06/25 09:55:22;;;;;;;2.25;1.42;;;23.90;99.90;;;;;;4995412;28;20445;-80
2022/06/25 09:57:48;;;;;;;1.80;1.60;;;24.50;99.90;;;;;;4995439;28;20043;-77
2022/06/25 10:00:14;;;;;;;2.42;1.30;;;25.10;99.90;;;;;;4994719;28;20031;-77
2022/06/25 10:02:41;;;;;;;2.40;1.65;;;25.30;99.90;;;;;;4995512;28;20074;-77
2022/06/25 10:05:08;;;;;;;3.75;1.50;;;25.50;99.90;;;;;;4994141;28;20412;-79
2022/06/25 10:10:22;;;;;;;2.15;1.40;;;25.80;99.90;;;;;;4996369;28;20026;-80
2022/06/25 10:12:50;;;;;;;2.35;1.52;;;25.30;99.90;;;;;;4995605;28;20090;-77
2022/06/25 10:15:18;;;;;;;1.95;1.40;;;25.60;99.90;;;;;;4998170;28;20034;-76
2022/06/25 10:17:48;;;;;;;2.65;1.25;;;25.80;99.90;;;;;;5012913;28;20042;-76
2022/06/25 10:20:15;;;;;;;2.90;1.60;;;26.00;99.90;;;;;;5013747;28;20057;-76
2022/06/25 10:22:42;;;;;;;2.78;1.30;;;26.10;98.10;;;;;;5014395;28;20049;-76
2022/06/25 10:25:11;;;;;;;1.63;1.23;;;26.30;99.90;;;;;;5013828;28;20030;-76
2022/06/25 10:27:44;;;;;;;2.65;1.30;;;26.80;97.90;;;;;;5014361;28;20400;-76
2022/06/25 10:30:12;;;;;;;2.35;1.05;;;26.30;96.70;;;;;;5014686;28;20030;-76
2022/06/25 10:32:47;;;;;;;5.05;1.40;;;26.70;97.10;;;;;;5014377;28;20045;-76
2022/06/25 10:35:31;;;;;;;2.55;1.38;;;27.30;96.80;;;;;;5014084;28;20041;-76
2022/06/25 10:38:05;;;;;;;3.42;1.50;;;26.50;93.00;;;;;;5012630;28;20065;-76
2022/06/25 10:40:52;;;;;;;2.60;1.10;;;25.90;95.10;;;;;;5014523;28;20035;-76
2022/06/25 10:43:39;;;;;;;3.47;1.20;;;25.80;93.10;;;;;;5013778;28;20038;-76
2022/06/25 10:46:23;;;;;;;1.38;1.10;;;25.60;92.80;;;;;;5013697;28;20031;-76
2022/06/25 10:49:11;;;;;;;2.72;1.13;;;25.30;94.00;;;;;;5014165;28;20448;-76
2022/06/25 10:51:51;;;;;;;1.85;1.23;;;25.00;94.20;;;;;;5014312;28;20030;-76
2022/06/25 10:54:22;;;;;;;1.95;1.10;;;24.90;93.10;;;;;;5014154;28;20097;-76
2022/06/25 10:56:50;;;;;;;1.70;1.30;;;24.80;94.00;;;;;;5013950;28;20097;-76
2022/06/25 10:59:45;;;;;;;2.25;1.20;;;25.40;97.00;;;;;;5012695;28;20475;-76
2022/06/25 11:02:12;;;;;;;2.35;1.10;;;26.50;92.30;;;;;;5013953;28;20564;-76
2022/06/25 11:04:38;;;;;;;2.42;1.20;;;26.90;90.60;;;;;;5014116;28;20113;-76
2022/06/25 11:07:12;;;;;;;3.50;1.30;;;27.40;91.20;;;;;;5013440;28;20117;-76
2022/06/25 11:09:39;;;;;;;1.45;1.02;;;27.70;91.00;;;;;;5013842;28;20133;-76
2022/06/25 11:12:06;;;;;;;1.25;1.10;;;27.80;88.70;;;;;;5012514;28;20037;-76
2022/06/25 11:14:33;;;;;;;1.83;1.20;;;28.30;85.50;;;;;;5017130;28;20074;-76
2022/06/25 11:17:07;;;;;;;3.33;1.20;;;28.60;85.30;;;;;;5017142;28;20497;-76
2022/06/25 11:19:32;;;;;;;3.55;1.10;;;29.00;79.40;;;;;;5017196;28;20044;-76
2022/06/25 11:22:01;;;;;;;3.45;1.05;;;29.20;78.20;;;;;;5017176;28;20030;-76
2022/06/25 11:24:28;;;;;;;5.78;1.50;;;29.40;81.30;;;;;;5015637;28;20034;-76
2022/06/25 11:29:46;;;;;;;3.83;1.10;;;29.20;77.60;;;;;;5017555;28;20037;-76
2022/06/25 11:32:12;;;;;;;2.42;1.25;;;29.10;82.20;;;;;;5017152;28;20116;-76
2022/06/25 11:34:38;;;;;;;1.45;1.30;;;29.20;76.90;;;;;;5016840;28;20492;-76
2022/06/25 11:37:13;;;;;;;2.88;1.10;;;29.00;74.90;;;;;;5015414;28;20035;-76
2022/06/25 11:39:40;;;;;;;5.00;1.08;;;29.00;79.40;;;;;;5016882;28;20085;-76
2022/06/25 11:42:10;;;;;;;1.75;1.10;;;28.90;73.60;;;;;;5016650;28;20030;-76
2022/06/25 11:44:44;;;;;;;2.50;1.10;;;28.70;74.40;;;;;;5016662;28;20456;-76
2022/06/25 11:47:13;;;;;;;2.92;1.25;;;29.00;74.40;;;;;;5016782;28;20496;-76
2022/06/25 11:49:41;;;;;;;2.35;1.00;;;29.40;74.60;;;;;;5015444;28;20112;-76
2022/06/25 11:52:07;;;;;;;2.28;1.10;;;29.30;74.70;;;;;;5016477;28;20038;-76
2022/06/25 11:54:36;;;;;;;3.70;1.10;;;29.10;73.40;;;;;;5016621;28;20533;-76
2022/06/25 11:57:04;;;;;;;1.83;1.30;;;29.70;72.70;;;;;;5017101;28;20117;-78
2022/06/25 11:59:36;;;;;;;3.15;1.48;;;30.00;75.00;;;;;;5015945;28;20038;-78
2022/06/25 12:02:04;;;;;;;1.52;1.30;;;30.60;69.50;;;;;;5016719;28;20038;-78
2022/06/25 12:04:31;;;;;;;3.17;1.40;;;30.60;71.20;;;;;;5017274;28;20038;-78
2022/06/25 12:06:58;;;;;;;2.22;1.13;;;30.80;74.60;;;;;;5015532;28;20089;-78
2022/06/25 12:09:24;;;;;;;1.85;1.23;;;31.00;72.10;;;;;;5015352;28;20058;-77
2022/06/25 12:11:51;;;;;;;3.15;1.30;;;31.50;71.50;;;;;;5016778;28;20072;-78
2022/06/25 12:14:25;;;;;;;1.42;1.30;;;31.90;68.50;;;;;;5016788;28;20042;-77
2022/06/25 12:16:51;;;;;;;1.42;1.00;;;31.60;66.10;;;;;;5016737;28;20796;-78
2022/06/25 12:19:18;;;;;;;1.40;0.90;;;30.70;65.90;;;;;;5016854;28;20104;-78
2022/06/25 12:21:44;;;;;;;4.00;1.10;;;30.10;69.70;;;;;;5016673;28;20779;-78
2022/06/25 12:24:14;;;;;;;1.95;1.10;;;30.10;69.50;;;;;;5016990;28;20044;-77
2022/06/25 12:26:41;;;;;;;1.60;1.30;;;30.30;66.10;;;;;;5016661;28;20083;-78
2022/06/25 12:29:36;;;;;;;2.00;1.40;;;30.60;69.60;;;;;;5016694;28;20114;-78
2022/06/25 12:32:01;;;;;;;3.63;1.30;;;30.70;70.20;;;;;;5014534;28;20081;-77
2022/06/25 12:34:27;;;;;;;1.25;1.00;;;30.30;65.40;;;;;;5016686;28;20125;-79
2022/06/25 12:36:55;;;;;;;2.13;1.20;;;29.80;76.10;;;;;;5016701;28;20041;-79
2022/06/25 12:39:37;;;;;;;2.42;1.27;;;30.10;68.40;;;;;;5015174;28;20038;-78
2022/06/25 12:42:06;;;;;;;3.58;1.15;;;30.50;73.00;;;;;;5016567;28;20030;-78
2022/06/25 12:44:33;;;;;;;3.25;1.00;;;30.70;66.40;;;;;;5016870;28;20559;-79
2022/06/25 12:47:07;;;;;;;2.33;1.40;;;30.70;69.40;;;;;;5016289;28;20057;-78
2022/06/25 12:49:59;;;;;;;3.17;1.23;;;30.90;65.30;;;;;;5015171;28;20034;-78
2022/06/25 12:52:36;;;;;;;3.30;1.20;;;30.50;65.70;;;;;;5012879;28;20047;-78
2022/06/25 12:55:02;;;;;;;3.05;1.27;;;29.40;69.40;;;;;;5014695;28;20481;-78
2022/06/25 12:57:32;;;;;;;4.00;1.23;;;29.60;72.60;;;;;;5015823;28;20026;-77
2022/06/25 13:00:00;;;;;;;1.48;1.20;;;29.60;74.30;;;;;;5016049;28;20038;-78
2022/06/25 13:02:26;;;;;;;1.80;1.20;;;30.40;73.90;;;;;;5015964;28;20125;-77
2022/06/25 13:04:52;;;;;;;3.10;1.35;;;30.10;68.30;;;;;;5016083;28;20166;-78
2022/06/25 13:07:19;;;;;;;1.30;1.20;;;29.50;70.70;;;;;;5016120;28;20026;-78
2022/06/25 13:09:47;;;;;;;1.85;1.38;;;28.90;73.00;;;;;;5015843;28;20042;-78
2022/06/25 13:12:12;;;;;;;2.17;1.25;;;28.80;74.60;;;;;;5014734;28;20030;-78
2022/06/25 13:14:39;;;;;;;2.08;1.20;;;28.30;73.00;;;;;;5018652;28;20047;-78
2022/06/25 13:17:06;;;;;;;2.35;1.10;;;28.00;73.70;;;;;;5018697;28;20031;-78
2022/06/25 13:19:32;;;;;;;2.20;1.25;;;28.00;72.80;;;;;;5015387;28;20479;-78
2022/06/25 13:22:00;;;;;;;1.55;1.23;;;29.00;76.70;;;;;;5014978;28;20045;-79
2022/06/25 13:24:27;;;;;;;2.00;1.10;;;30.10;78.30;;;;;;5017522;28;20038;-78
2022/06/25 13:26:53;;;;;;;1.45;1.10;;;31.10;69.00;;;;;;5018410;28;20038;-79
2022/06/25 13:29:19;;;;;;;3.08;1.10;;;31.60;70.40;;;;;;5015851;28;20065;-78
2022/06/25 13:31:45;;;;;;;2.13;1.30;;;32.80;62.50;;;;;;5016635;28;20064;-79
2022/06/25 13:34:10;;;;;;;1.48;1.10;;;33.80;58.30;;;;;;5016894;28;20049;-80
2022/06/25 13:36:36;;;;;;;1.20;1.00;;;34.20;59.70;;;;;;5014916;28;20441;-79
2022/06/25 13:39:04;;;;;;;1.80;1.15;;;34.70;58.90;;;;;;5015987;28;20030;-79
2022/06/25 13:41:32;;;;;;;2.60;1.20;;;34.80;56.60;;;;;;5014573;28;20449;-81
2022/06/25 13:43:58;;;;;;;3.92;1.33;;;35.00;60.70;;;;;;5015700;28;20653;-79
2022/06/25 13:46:24;;;;;;;2.78;1.10;;;35.60;54.90;;;;;;5015091;28;20085;-79
2022/06/25 13:48:50;;;;;;;2.88;1.10;;;36.90;53.60;;;;;;5016128;28;20085;-80
2022/06/25 13:51:17;;;;;;;3.22;1.20;;;36.00;52.50;;;;;;5014194;28;20065;-80
2022/06/25 13:53:43;;;;;;;1.58;1.17;;;34.70;55.40;;;;;;5015773;28;20131;-80
2022/06/25 13:56:09;;;;;;;1.40;1.17;;;34.60;60.90;;;;;;5015331;28;20109;-79
2022/06/25 13:58:34;;;;;;;1.35;1.10;;;35.30;52.60;;;;;;5014333;28;20548;-79
2022/06/25 14:01:00;;;;;;;1.73;1.10;;;36.10;56.90;;;;;;5015775;28;20121;-79
2022/06/25 14:03:26;;;;;;;2.78;1.33;;;36.80;52.80;;;;;;5016792;28;20095;-79
2022/06/25 14:05:52;;;;;;;1.20;1.10;;;36.30;51.40;;;;;;5016470;28;20034;-79
2022/06/25 14:08:18;;;;;;;2.63;1.35;;;34.60;53.80;;;;;;5016130;28;20476;-79
2022/06/25 14:10:43;;;;;;;3.67;1.33;;;32.80;59.00;;;;;;5015902;28;20042;-79
2022/06/25 14:13:09;;;;;;;3.28;1.20;;;31.30;59.30;;;;;;5015324;28;20046;-79
2022/06/25 14:15:35;;;;;;;2.78;1.33;;;32.20;60.60;;;;;;5015583;28;20030;-80
2022/06/25 14:18:01;;;;;;;1.98;1.23;;;34.00;55.80;;;;;;5016577;28;20042;-79
2022/06/25 14:20:28;;;;;;;3.45;1.30;;;35.20;55.20;;;;;;5015192;28;20031;-80
2022/06/25 14:22:53;;;;;;;1.45;1.27;;;37.10;57.90;;;;;;5017227;28;20100;-77
2022/06/25 14:25:24;;;;;;;1.30;1.10;;;38.60;53.70;;;;;;5016661;28;20064;-78
2022/06/25 14:27:51;;;;;;;1.30;1.10;;;37.40;48.80;;;;;;5015814;28;20468;-77
2022/06/25 14:30:17;;;;;;;3.38;1.20;;;35.50;51.70;;;;;;5014618;28;20034;-77
2022/06/25 14:32:42;;;;;;;3.42;1.30;;;36.20;52.60;;;;;;5014502;28;20034;-77
2022/06/25 14:35:08;;;;;;;2.47;1.33;;;37.20;50.70;;;;;;5015532;28;20027;-77
2022/06/25 14:43:03;;;;;;;4.13;1.30;;;34.90;52.70;;;;;;5015917;28;20085;-77
2022/06/25 14:45:29;;;;;;;1.42;1.27;;;35.10;57.00;;;;;;5016381;28;20030;-77
2022/06/25 14:47:55;;;;;;;1.63;1.20;;;36.20;50.10;;;;;;5017115;28;20038;-78
2022/06/25 14:50:20;;;;;;;2.10;1.23;;;38.10;46.40;;;;;;5017605;28;20022;-78
2022/06/25 14:52:46;;;;;;;1.40;1.30;;;38.30;44.60;;;;;;5019285;28;20105;-77
2022/06/25 14:55:11;;;;;;;1.83;1.42;;;36.00;49.60;;;;;;5019183;28;20052;-77
2022/06/25 14:57:37;;;;;;;2.35;1.17;;;36.30;49.10;;;;;;5017199;28;20050;-77
2022/06/25 15:00:04;;;;;;;2.15;1.30;;;37.10;47.40;;;;;;5019007;28;20034;-77
2022/06/25 15:02:30;;;;;;;4.38;1.30;;;38.20;46.40;;;;;;5016762;28;20464;-77
2022/06/25 15:04:55;;;;;;;3.05;1.45;;;38.40;47.50;;;;;;5018162;28;20081;-78
2022/06/25 15:07:22;;;;;;;1.63;1.30;;;38.60;45.20;;;;;;5018310;28;20081;-77
2022/06/25 15:09:48;;;;;;;2.33;1.42;;;38.40;45.70;;;;;;5018529;28;20066;-78
2022/06/25 15:12:14;;;;;;;2.05;1.25;;;39.90;45.70;;;;;;5017357;28;20042;-79
2022/06/25 15:14:39;;;;;;;1.52;1.42;;;39.70;44.30;;;;;;5016964;28;20042;-78
2022/06/25 15:17:06;;;;;;;1.90;1.40;;;39.50;44.10;;;;;;5017181;28;20085;-77
2022/06/25 15:19:32;;;;;;;2.88;1.25;;;39.70;45.90;;;;;;5018441;28;20038;-77
2022/06/25 15:21:58;;;;;;;1.38;1.23;;;39.50;42.80;;;;;;5018423;28;20507;-77
2022/06/25 15:24:23;;;;;;;2.22;1.50;;;38.00;45.30;;;;;;5018545;28;20038;-77
2022/06/25 15:26:49;;;;;;;1.40;1.20;;;39.30;48.90;;;;;;5020462;28;20084;-78
2022/06/25 15:29:15;;;;;;;1.85;1.30;;;40.20;43.40;;;;;;5021421;28;20039;-76
2022/06/25 15:31:40;;;;;;;1.75;1.27;;;40.80;44.30;;;;;;5021263;28;20034;-77
2022/06/25 15:34:06;;;;;;;1.30;1.20;;;39.80;44.80;;;;;;5021003;28;20116;-77
2022/06/25 15:36:32;;;;;;;1.40;1.25;;;39.30;42.20;;;;;;5019460;28;20493;-77
2022/06/25 15:38:58;;;;;;;1.45;1.30;;;39.80;43.30;;;;;;5018918;28;20042;-77
2022/06/25 15:41:24;;;;;;;1.80;1.35;;;39.10;44.20;;;;;;5017329;28;20039;-77
2022/06/25 15:43:50;;;;;;;1.98;1.30;;;40.00;47.50;;;;;;5016273;28;20129;-78
2022/06/25 15:46:16;;;;;;;1.30;1.20;;;40.40;44.00;;;;;;5018094;28;20524;-77
2022/06/25 15:48:42;;;;;;;2.17;1.52;;;41.20;40.40;;;;;;5017964;28;20049;-77
2022/06/25 15:51:07;;;;;;;1.60;1.40;;;41.30;42.40;;;;;;5017645;28;20519;-77
2022/06/25 15:53:33;;;;;;;2.75;1.50;;;41.00;40.50;;;;;;5017666;28;20050;-77
2022/06/25 15:55:59;;;;;;;1.55;1.30;;;40.60;44.30;;;;;;5017682;28;20050;-77
2022/06/25 15:58:24;;;;;;;1.38;1.27;;;39.80;43.70;;;;;;5018424;28;20420;-77
2022/06/25 16:00:50;;;;;;;2.10;1.30;;;40.20;40.80;;;;;;5017136;28;20555;-77
2022/06/25 16:03:16;;;;;;;2.88;1.45;;;40.20;41.70;;;;;;5016331;28;20508;-77
2022/06/25 16:05:42;;;;;;;2.65;1.30;;;40.90;41.20;;;;;;5017835;28;20035;-78
2022/06/25 16:08:08;;;;;;;1.35;1.23;;;41.30;41.90;;;;;;5016413;28;20416;-79
2022/06/25 16:10:34;;;;;;;3.55;1.23;;;41.60;40.50;;;;;;5017206;28;20034;-77
2022/06/25 16:12:59;;;;;;;1.58;1.30;;;41.00;40.00;;;;;;5017362;28;20034;-77
2022/06/25 16:15:25;;;;;;;2.67;1.33;;;41.40;39.30;;;;;;5017527;28;20376;-76
2022/06/25 16:17:51;;;;;;;2.33;1.55;;;41.40;39.00;;;;;;5016076;28;20034;-76
2022/06/25 16:20:17;;;;;;;1.27;1.20;;;41.00;40.70;;;;;;5016319;28;20084;-76
2022/06/25 16:22:43;;;;;;;3.78;1.50;;;41.00;39.60;;;;;;5016330;28;20080;-76
2022/06/25 16:25:09;;;;;;;2.25;1.15;;;40.90;40.40;;;;;;5016360;28;20039;-76
2022/06/25 16:27:35;;;;;;;2.63;1.58;;;40.50;38.30;;;;;;5016162;28;20492;-76
2022/06/25 16:30:01;;;;;;;1.40;1.13;;;39.30;40.10;;;;;;5016159;28;20037;-76
2022/06/25 16:32:28;;;;;;;1.52;1.05;;;37.70;41.30;;;;;;5016229;28;20101;-76
2022/06/25 16:34:53;;;;;;;1.55;1.10;;;35.50;44.40;;;;;;5016185;28;20081;-76
2022/06/25 16:37:19;;;;;;;1.77;1.27;;;34.50;50.50;;;;;;5015631;28;20711;-75
2022/06/25 16:39:45;;;;;;;2.13;1.33;;;33.10;49.20;;;;;;5014570;28;20484;-75
2022/06/25 16:42:10;;;;;;;1.90;1.23;;;32.50;50.20;;;;;;5015581;28;20507;-75
2022/06/25 16:44:36;;;;;;;1.20;1.10;;;32.10;50.90;;;;;;5016026;28;20117;-77
2022/06/25 16:47:02;;;;;;;1.48;1.30;;;31.40;51.80;;;;;;5017885;28;20030;-77
2022/06/25 16:49:29;;;;;;;2.60;1.23;;;31.10;51.80;;;;;;5016905;28;20041;-77
2022/06/25 16:51:56;;;;;;;1.38;1.15;;;30.90;55.00;;;;;;5016558;28;20046;-77
2022/06/25 16:54:24;;;;;;;1.75;1.23;;;30.80;55.30;;;;;;5016584;28;20126;-77
2022/06/25 16:56:53;;;;;;;3.65;1.10;;;30.50;54.80;;;;;;5015941;28;20033;-77
2022/06/25 16:59:19;;;;;;;1.40;1.25;;;30.00;55.80;;;;;;5016830;28;20118;-77
2022/06/25 17:01:46;;;;;;;2.15;1.30;;;29.80;65.20;;;;;;5015886;28;20504;-78
2022/06/25 17:04:12;;;;;;;1.55;1.20;;;29.50;58.10;;;;;;5016516;28;20081;-76